This is the latest recevied weather packets stored in our database for station/object DG8SF-13. If no packets are shown the sender has not sent any weather packets the latest 10 day(s).
| Time | Temp. | Humidity | Pressure | Rain* | Wind** | Luminosity | Snow |
|---|---|---|---|---|---|---|---|
| 1777701342 | 10° C | 67% | 1023.1 hPa | 0 mm | - | - | - |
| 1777701042 | 9.44° C | 71% | 1023 hPa | 0 mm | - | - | - |
| 1777700733 | 6.67° C | 78% | 1023.1 hPa | 0 mm | - | - | - |
| 1777700421 | 5.56° C | 82% | 1023.1 hPa | 0 mm | - | - | - |
| 1777700106 | 5° C | 81% | 1023.1 hPa | 0 mm | - | - | - |
| 1777699795 | 5° C | 82% | 1023 hPa | 0 mm | - | - | - |
| 1777699483 | 5° C | 84% | 1023.1 hPa | 0 mm | - | - | - |
| 1777699171 | 4.44° C | 83% | 1023.1 hPa | 0 mm | - | - | - |
| 1777698863 | 4.44° C | 83% | 1023.1 hPa | 0 mm | - | - | - |
| 1777698561 | 4.44° C | 85% | 1023.1 hPa | 0 mm | - | - | - |
| 1777698245 | 3.89° C | 85% | 1023.1 hPa | 0 mm | - | - | - |
| 1777697945 | 3.89° C | 86% | 1023.1 hPa | 0 mm | - | - | - |
| 1777697643 | 3.33° C | 88% | 1023 hPa | 0 mm | - | - | - |
| 1777697322 | 2.78° C | 88% | 1023 hPa | 0 mm | - | - | - |
| 1777697011 | 2.78° C | 88% | 1023.1 hPa | 0 mm | - | - | - |
| 1777696699 | 2.78° C | 88% | 1023.1 hPa | 0 mm | - | - | - |
| 1777696388 | 2.78° C | 87% | 1023.1 hPa | 0 mm | - | - | - |
| 1777696085 | 2.78° C | 88% | 1023 hPa | 0 mm | - | - | - |
| 1777695776 | 2.78° C | 89% | 1023 hPa | 0 mm | - | - | - |
| 1777695463 | 2.78° C | 89% | 1023.1 hPa | 0 mm | - | - | - |
| 1777695150 | 2.78° C | 88% | 1022.9 hPa | 0 mm | - | - | - |
| 1777694837 | 2.78° C | 89% | 1022.9 hPa | 0 mm | - | - | - |
| 1777694529 | 2.78° C | 88% | 1023 hPa | 0 mm | - | - | - |
| 1777694214 | 3.33° C | 88% | 1022.9 hPa | 0 mm | - | - | - |
| 1777693914 | 3.33° C | 88% | 1022.9 hPa | 0 mm | - | - | - |
* Rain latest hour (hover to see other rain measurements)
** Current wind speed in m/s (hover to see current wind gust speed)